createdAt,value
2023-02-11T00:05:20.587Z,88.18
2023-02-11T00:20:22.578Z,87.80
2023-02-11T00:35:24.695Z,87.71
2023-02-11T00:50:26.776Z,87.51
2023-02-11T01:05:29.367Z,87.46
2023-02-11T01:20:31.580Z,87.72
2023-02-11T01:35:33.647Z,87.49
2023-02-11T01:50:36.372Z,87.36
2023-02-11T02:05:45.789Z,87.77
2023-02-11T02:21:09.309Z,87.58
2023-02-11T02:36:24.021Z,87.29
2023-02-11T02:52:00.535Z,87.06
2023-02-11T03:07:53.525Z,86.77
2023-02-11T03:23:02.996Z,86.20
2023-02-11T03:38:15.101Z,85.97
2023-02-11T03:53:18.200Z,85.58
2023-02-11T04:08:20.696Z,85.38
2023-02-11T04:23:22.775Z,84.71
2023-02-11T04:38:24.812Z,85.02
2023-02-11T04:53:26.855Z,85.07
2023-02-11T05:08:29.133Z,84.89
2023-02-11T05:23:31.179Z,84.71
2023-02-11T05:38:33.850Z,84.69
2023-02-11T05:53:36.217Z,84.45
2023-02-11T06:08:39.396Z,84.42
2023-02-11T06:23:41.683Z,84.88
2023-02-11T06:38:44.129Z,86.37
2023-02-11T06:53:47.294Z,87.68
2023-02-11T07:08:49.680Z,87.50
2023-02-11T07:23:52.191Z,87.35
2023-02-11T07:38:54.417Z,87.32
2023-02-11T07:53:58.809Z,87.43
2023-02-11T08:09:06.619Z,88.50
2023-02-11T08:24:09.067Z,88.69
2023-02-11T08:39:20.884Z,88.98
2023-02-11T08:54:23.282Z,88.81
2023-02-11T09:09:25.379Z,89.53
2023-02-11T09:24:27.461Z,90.35
2023-02-11T09:39:29.684Z,91.20
2023-02-11T09:54:53.034Z,91.77
2023-02-11T10:10:23.406Z,92.13
2023-02-11T10:25:54.882Z,91.99
2023-02-11T10:40:57.152Z,91.92
2023-02-11T10:55:59.336Z,91.90
2023-02-11T11:11:08.535Z,91.65
2023-02-11T11:26:15.777Z,91.39
2023-02-11T11:41:25.112Z,91.65
2023-02-11T11:56:33.856Z,91.93
2023-02-11T12:12:23.946Z,91.75
2023-02-11T12:27:46.970Z,91.34
2023-02-11T12:43:14.177Z,90.57
2023-02-11T12:58:27.339Z,90.48
2023-02-11T13:13:39.602Z,90.75
2023-02-11T13:28:44.557Z,91.48
2023-02-11T13:44:23.886Z,92.06
2023-02-11T13:59:26.143Z,92.05
2023-02-11T14:14:33.853Z,92.08
2023-02-11T14:30:08.333Z,91.77
2023-02-11T14:45:15.557Z,91.76
2023-02-11T15:00:23.132Z,91.83
2023-02-11T15:15:27.466Z,92.09
2023-02-11T15:30:34.394Z,92.43
2023-02-11T15:46:01.766Z,92.67
2023-02-11T16:01:05.340Z,92.77
2023-02-11T16:16:20.538Z,92.96
2023-02-11T16:31:23.448Z,92.88
2023-02-11T16:46:28.231Z,92.89
2023-02-11T17:01:31.379Z,92.94
2023-02-11T17:16:35.420Z,93.19
2023-02-11T17:31:39.625Z,93.13
2023-02-11T17:46:43.112Z,93.00
2023-02-11T18:01:46.204Z,92.98
2023-02-11T18:16:53.953Z,93.09
2023-02-11T18:31:58.069Z,92.96
2023-02-11T18:47:01.947Z,92.91
2023-02-11T19:02:05.100Z,92.94
2023-02-11T19:17:11.783Z,92.71
2023-02-11T19:32:18.960Z,92.46
2023-02-11T19:47:28.059Z,92.33
2023-02-11T20:02:32.053Z,92.26
2023-02-11T20:17:35.173Z,92.08
2023-02-11T20:32:39.433Z,91.49
2023-02-11T20:47:43.354Z,86.13
2023-02-11T21:02:46.299Z,83.99
2023-02-11T21:17:49.155Z,82.01
2023-02-11T21:32:55.749Z,81.50
2023-02-11T21:47:58.473Z,81.61
2023-02-11T22:03:01.154Z,81.26
2023-02-11T22:18:03.497Z,81.58
2023-02-11T22:33:05.937Z,82.66
2023-02-11T22:48:07.933Z,83.86
2023-02-11T23:03:11.278Z,84.81
2023-02-11T23:18:14.461Z,84.69
2023-02-11T23:33:16.531Z,85.38
2023-02-11T23:48:19.018Z,83.88
